createdAt,value
2022-10-05T00:03:16.808Z,6.80
2022-10-05T00:23:16.367Z,5.90
2022-10-05T00:43:16.102Z,6.60
2022-10-05T01:03:15.827Z,7.30
2022-10-05T01:23:15.563Z,7.20
2022-10-05T01:43:15.291Z,7.50
2022-10-05T02:03:15.048Z,7.00
2022-10-05T02:23:14.753Z,6.10
2022-10-05T02:43:14.673Z,8.80
2022-10-05T03:03:14.286Z,7.40
2022-10-05T03:23:13.943Z,8.10
2022-10-05T03:43:13.672Z,8.30
2022-10-05T04:03:13.406Z,7.20
2022-10-05T04:23:13.136Z,7.20
2022-10-05T04:43:12.858Z,7.40
2022-10-05T05:03:12.586Z,11.40
2022-10-05T05:23:12.365Z,9.00
2022-10-05T05:43:12.052Z,5.40
2022-10-05T06:03:11.907Z,8.00
2022-10-05T06:23:11.557Z,9.50
2022-10-05T06:43:11.231Z,11.80
2022-10-05T07:03:10.968Z,16.30
2022-10-05T07:23:10.694Z,12.00
2022-10-05T07:43:10.421Z,14.10
2022-10-05T08:03:10.211Z,12.90
2022-10-05T08:23:09.876Z,11.20
2022-10-05T08:43:09.607Z,10.80
2022-10-05T09:03:09.330Z,9.70
2022-10-05T09:23:09.240Z,10.90
2022-10-05T09:43:08.786Z,7.10
2022-10-05T10:03:08.618Z,9.10
2022-10-05T10:23:08.237Z,11.50
2022-10-05T10:43:08.015Z,9.80
2022-10-05T11:03:07.770Z,7.00
2022-10-05T11:23:07.422Z,7.00
2022-10-05T11:43:07.162Z,5.10
2022-10-05T12:03:07.050Z,6.10
2022-10-05T12:23:06.691Z,3.90
2022-10-05T12:43:06.373Z,3.40
2022-10-05T13:03:06.141Z,2.10
2022-10-05T13:23:05.849Z,3.80
2022-10-05T13:43:05.622Z,2.30
2022-10-05T14:03:05.319Z,2.40
2022-10-05T14:23:05.006Z,3.30
2022-10-05T14:43:04.900Z,4.20
2022-10-05T15:03:04.481Z,5.10
2022-10-05T15:23:04.218Z,3.60
2022-10-05T15:43:03.930Z,5.40
2022-10-05T16:03:03.615Z,4.50
2022-10-05T16:23:03.395Z,4.80
2022-10-05T16:43:03.147Z,4.00
2022-10-05T17:03:02.846Z,5.70
2022-10-05T17:23:02.529Z,6.20
2022-10-05T17:43:02.257Z,4.40
2022-10-05T18:03:02.110Z,3.60
2022-10-05T18:23:01.787Z,4.60
2022-10-05T18:43:01.613Z,4.20
2022-10-05T20:00:52.547Z,2.90
2022-10-05T20:20:52.128Z,3.20
2022-10-05T20:40:51.876Z,1.60
2022-10-05T21:00:51.652Z,2.40
2022-10-05T21:20:51.318Z,2.40
2022-10-05T21:40:50.982Z,3.50
2022-10-05T22:00:50.775Z,2.40
2022-10-05T22:20:50.447Z,1.60
2022-10-05T22:40:50.211Z,0.50
2022-10-05T23:00:58.795Z,0.60
2022-10-05T23:20:49.632Z,0.40
2022-10-05T23:40:49.341Z,0.60
